createdAt,value
2022-12-08T00:01:42.773Z,0.83
2022-12-08T00:04:11.529Z,0.83
2022-12-08T00:07:00.798Z,0.83
2022-12-08T00:09:38.571Z,0.90
2022-12-08T00:12:09.308Z,0.85
2022-12-08T00:14:45.283Z,0.74
2022-12-08T00:17:15.578Z,0.68
2022-12-08T00:19:44.211Z,0.73
2022-12-08T00:22:13.188Z,0.72
2022-12-08T00:24:44.680Z,0.83
2022-12-08T00:27:15.088Z,0.66
2022-12-08T00:29:44.706Z,0.77
2022-12-08T00:32:13.183Z,0.85
2022-12-08T00:34:48.823Z,0.85
2022-12-08T00:37:16.747Z,0.66
2022-12-08T00:39:46.071Z,0.47
2022-12-08T00:42:14.056Z,0.43
2022-12-08T00:44:42.550Z,0.42
2022-12-08T00:47:11.255Z,0.56
2022-12-08T00:49:39.395Z,0.53
2022-12-08T00:52:08.835Z,0.56
2022-12-08T00:54:42.367Z,0.45
2022-12-08T00:57:11.668Z,0.63
2022-12-08T00:59:41.520Z,0.70
2022-12-08T01:02:09.435Z,0.69
2022-12-08T01:04:39.890Z,0.55
2022-12-08T01:07:07.781Z,0.59
2022-12-08T01:09:36.008Z,0.67
2022-12-08T01:12:04.043Z,0.65
2022-12-08T01:14:33.469Z,1.03
2022-12-08T01:17:01.548Z,0.82
2022-12-08T01:19:30.736Z,1.03
2022-12-08T01:21:58.786Z,0.75
2022-12-08T01:24:26.979Z,0.68
2022-12-08T01:26:54.992Z,0.76
2022-12-08T01:29:22.883Z,0.71
2022-12-08T01:31:52.299Z,0.67
2022-12-08T01:34:20.176Z,0.78
2022-12-08T01:36:48.247Z,0.90
2022-12-08T01:39:18.619Z,0.89
2022-12-08T01:41:47.622Z,0.72
2022-12-08T01:45:04.361Z,0.65
2022-12-08T01:47:48.392Z,0.71
2022-12-08T01:50:20.034Z,0.68
2022-12-08T01:52:51.165Z,0.76
2022-12-08T01:55:23.917Z,0.75
2022-12-08T01:57:57.186Z,0.73
2022-12-08T02:00:26.096Z,0.83
2022-12-08T02:02:59.814Z,0.98
2022-12-08T02:05:30.418Z,0.70
2022-12-08T02:08:00.034Z,0.63
2022-12-08T02:10:30.893Z,0.57
2022-12-08T02:13:01.280Z,0.70
2022-12-08T02:15:37.815Z,0.71
2022-12-08T02:18:20.533Z,0.65
2022-12-08T02:20:58.098Z,0.71
2022-12-08T02:23:35.574Z,0.70
2022-12-08T02:26:35.077Z,0.62
2022-12-08T02:29:38.201Z,0.65
2022-12-08T02:32:26.042Z,0.59
2022-12-08T02:35:03.970Z,0.73
2022-12-08T02:37:36.223Z,0.74
2022-12-08T02:40:12.729Z,1.10
2022-12-08T02:42:47.858Z,0.83
2022-12-08T02:45:21.480Z,0.90
2022-12-08T02:47:50.388Z,0.85
2022-12-08T02:50:19.842Z,0.78
2022-12-08T02:52:49.080Z,0.82
2022-12-08T02:55:23.994Z,0.97
2022-12-08T02:58:12.403Z,1.13
2022-12-08T03:00:53.028Z,1.23
2022-12-08T03:03:29.239Z,1.01
2022-12-08T03:06:06.920Z,1.00
2022-12-08T03:08:42.209Z,1.10
2022-12-08T03:11:16.202Z,1.00
2022-12-08T03:13:47.337Z,1.00
2022-12-08T03:16:19.262Z,1.08
2022-12-08T03:18:50.717Z,0.86
2022-12-08T03:21:22.748Z,0.83
2022-12-08T03:23:54.519Z,0.83
2022-12-08T03:26:29.989Z,0.96
2022-12-08T03:28:58.740Z,0.82
2022-12-08T03:31:30.609Z,0.74
2022-12-08T03:34:00.429Z,0.95
2022-12-08T03:36:30.101Z,0.65
2022-12-08T03:38:58.018Z,0.71
2022-12-08T03:41:26.062Z,0.59
2022-12-08T03:43:55.391Z,0.56
2022-12-08T03:48:52.822Z,0.50
2022-12-08T03:51:21.121Z,0.62
2022-12-08T03:53:50.990Z,0.85
2022-12-08T03:56:24.538Z,0.77
2022-12-08T03:58:53.448Z,0.79
2022-12-08T04:01:22.101Z,0.78
2022-12-08T04:03:50.598Z,0.94
2022-12-08T04:06:19.088Z,0.60
2022-12-08T04:08:47.577Z,0.88
2022-12-08T04:11:17.217Z,0.70
2022-12-08T04:13:45.617Z,0.66
2022-12-08T04:16:16.934Z,0.68
2022-12-08T04:18:44.938Z,0.54
2022-12-08T04:21:13.232Z,0.47
2022-12-08T04:23:41.455Z,0.55
2022-12-08T04:26:10.194Z,0.43
2022-12-08T04:28:39.586Z,0.53
2022-12-08T04:31:07.972Z,0.58
2022-12-08T04:33:36.173Z,0.52
2022-12-08T04:36:04.300Z,0.62
2022-12-08T04:38:32.566Z,0.60
2022-12-08T04:41:00.542Z,0.58
2022-12-08T04:43:28.516Z,0.55
2022-12-08T04:45:57.942Z,0.50
2022-12-08T04:48:26.314Z,0.43
2022-12-08T04:50:54.247Z,0.52
2022-12-08T04:53:22.442Z,0.46
2022-12-08T04:55:50.363Z,0.45
2022-12-08T04:58:20.609Z,0.50
2022-12-08T05:00:49.511Z,0.57
2022-12-08T05:03:21.443Z,0.55
2022-12-08T05:05:54.733Z,0.60
2022-12-08T05:08:23.082Z,0.69
2022-12-08T05:10:51.085Z,0.78
2022-12-08T05:13:19.063Z,0.65
2022-12-08T05:15:46.971Z,0.68
2022-12-08T05:18:15.736Z,0.60
2022-12-08T05:20:45.344Z,0.70
2022-12-08T05:23:13.357Z,0.70
2022-12-08T05:25:41.529Z,0.88
2022-12-08T05:28:39.657Z,0.91
2022-12-08T05:30:58.088Z,0.99
2022-12-08T05:33:26.182Z,0.98
2022-12-08T05:35:55.648Z,0.91
2022-12-08T05:38:23.829Z,0.95
2022-12-08T05:40:51.813Z,0.92
2022-12-08T05:43:19.710Z,1.13
2022-12-08T05:45:47.851Z,1.04
2022-12-08T05:48:16.191Z,0.99
2022-12-08T05:50:47.755Z,1.14
2022-12-08T05:53:17.506Z,1.13
2022-12-08T05:55:45.768Z,1.26
2022-12-08T05:58:16.915Z,1.23
2022-12-08T06:00:46.527Z,1.21
2022-12-08T06:03:16.430Z,1.14
2022-12-08T06:05:46.384Z,1.17
2022-12-08T06:08:15.105Z,1.28
2022-12-08T06:10:45.909Z,1.23
2022-12-08T06:13:14.765Z,1.33
2022-12-08T06:15:43.122Z,1.26
2022-12-08T06:18:12.267Z,1.23
2022-12-08T06:20:40.282Z,1.25
2022-12-08T06:23:08.378Z,1.24
2022-12-08T06:25:36.284Z,1.34
2022-12-08T06:28:08.582Z,1.24
2022-12-08T06:30:36.708Z,1.37
2022-12-08T06:33:04.847Z,1.35
2022-12-08T06:35:33.155Z,1.42
2022-12-08T06:38:01.229Z,1.45
2022-12-08T06:40:29.432Z,1.55
2022-12-08T06:42:57.517Z,1.37
2022-12-08T06:45:27.174Z,1.46
2022-12-08T06:47:55.295Z,1.42
2022-12-08T06:50:25.796Z,1.52
2022-12-08T06:53:03.127Z,1.38
2022-12-08T06:58:21.538Z,1.39
2022-12-08T07:00:51.247Z,1.48
2022-12-08T07:03:19.346Z,1.49
2022-12-08T07:05:47.675Z,1.51
2022-12-08T07:08:15.820Z,1.54
2022-12-08T07:10:47.197Z,1.60
2022-12-08T07:13:15.878Z,1.48
2022-12-08T07:15:43.823Z,1.65
2022-12-08T07:18:13.144Z,1.47
2022-12-08T07:20:41.319Z,1.50
2022-12-08T07:23:09.229Z,1.49
2022-12-08T07:25:40.250Z,1.71
2022-12-08T07:28:11.959Z,1.76
2022-12-08T07:30:40.355Z,1.62
2022-12-08T07:33:08.365Z,1.58
2022-12-08T07:35:37.860Z,1.48
2022-12-08T07:38:05.810Z,1.56
2022-12-08T07:40:33.880Z,1.59
2022-12-08T07:43:06.346Z,1.52
2022-12-08T07:45:34.358Z,1.58
2022-12-08T07:48:02.284Z,1.72
2022-12-08T07:50:30.217Z,1.80
2022-12-08T07:52:59.541Z,1.80
2022-12-08T07:55:27.824Z,1.86
2022-12-08T07:57:55.930Z,1.69
2022-12-08T08:00:24.149Z,1.78
2022-12-08T08:02:52.092Z,1.91
2022-12-08T08:05:20.666Z,1.87
2022-12-08T08:07:48.684Z,1.83
2022-12-08T08:10:19.245Z,1.99
2022-12-08T08:12:47.599Z,1.95
2022-12-08T08:15:15.660Z,2.02
2022-12-08T08:17:43.640Z,2.10
2022-12-08T08:20:12.519Z,1.87
2022-12-08T08:22:40.444Z,1.90
2022-12-08T08:25:09.206Z,1.92
2022-12-08T08:27:38.547Z,2.11
2022-12-08T08:30:08.573Z,2.02
2022-12-08T08:32:36.925Z,2.00
2022-12-08T08:35:05.801Z,1.92
2022-12-08T08:37:33.840Z,1.92
2022-12-08T08:40:02.265Z,2.02
2022-12-08T08:42:30.396Z,2.08
2022-12-08T08:44:59.904Z,2.11
2022-12-08T08:47:28.003Z,2.11
2022-12-08T08:49:55.957Z,2.07
2022-12-08T08:52:24.096Z,2.04
2022-12-08T08:54:52.059Z,1.94
2022-12-08T08:57:25.325Z,2.01
2022-12-08T08:59:53.959Z,2.03
2022-12-08T09:02:23.426Z,2.02
2022-12-08T09:04:51.437Z,2.00
2022-12-08T09:07:19.702Z,2.06
2022-12-08T09:09:47.883Z,2.05
2022-12-08T09:12:15.988Z,2.03
2022-12-08T09:14:44.012Z,2.19
2022-12-08T09:17:11.951Z,2.48
2022-12-08T09:19:41.517Z,2.48
2022-12-08T09:22:09.518Z,2.37
2022-12-08T09:24:37.492Z,2.34
2022-12-08T09:27:05.581Z,2.42
2022-12-08T09:29:36.251Z,2.55
2022-12-08T09:32:04.764Z,2.49
2022-12-08T09:34:32.868Z,2.41
2022-12-08T09:37:02.342Z,2.32
2022-12-08T09:39:30.390Z,2.39
2022-12-08T09:42:01.661Z,2.34
2022-12-08T09:44:51.652Z,2.39
2022-12-08T09:47:23.199Z,2.48
2022-12-08T09:49:58.172Z,2.59
2022-12-08T09:52:32.423Z,2.71
2022-12-08T09:55:05.509Z,2.61
2022-12-08T09:57:33.451Z,2.69
2022-12-08T10:00:07.081Z,2.61
2022-12-08T10:02:35.388Z,2.70
2022-12-08T10:05:03.361Z,2.70
2022-12-08T10:07:40.182Z,2.82
2022-12-08T10:10:20.959Z,2.79
2022-12-08T10:12:55.176Z,2.80
2022-12-08T10:15:41.377Z,2.79
2022-12-08T10:18:16.864Z,2.96
2022-12-08T10:20:51.220Z,2.83
2022-12-08T10:23:34.354Z,2.91
2022-12-08T10:26:04.529Z,2.93
2022-12-08T10:28:34.121Z,2.87
2022-12-08T10:31:02.295Z,2.81
2022-12-08T10:33:34.116Z,2.80
2022-12-08T10:36:03.160Z,2.92
2022-12-08T10:38:33.888Z,2.93
2022-12-08T10:41:06.023Z,2.84
2022-12-08T10:43:35.257Z,2.88
2022-12-08T10:46:12.360Z,2.85
2022-12-08T10:48:49.946Z,2.86
2022-12-08T10:51:27.765Z,2.87
2022-12-08T10:53:57.747Z,2.97
2022-12-08T10:56:28.670Z,2.87
2022-12-08T10:59:12.821Z,2.87
2022-12-08T11:01:42.103Z,2.90
2022-12-08T11:04:16.610Z,2.94
2022-12-08T11:06:45.253Z,2.81
2022-12-08T11:09:38.287Z,2.81
2022-12-08T11:12:14.625Z,2.82
2022-12-08T11:14:52.002Z,2.80
2022-12-08T11:17:27.359Z,2.75
2022-12-08T11:20:00.560Z,2.87
2022-12-08T11:22:32.969Z,2.68
2022-12-08T11:25:04.825Z,2.73
2022-12-08T11:27:34.667Z,2.56
2022-12-08T11:30:03.693Z,2.49
2022-12-08T11:32:34.639Z,2.56
2022-12-08T11:35:05.270Z,2.61
2022-12-08T11:37:38.595Z,2.61
2022-12-08T11:40:16.393Z,2.56
2022-12-08T11:42:52.985Z,2.56
2022-12-08T11:45:26.610Z,2.58
2022-12-08T11:48:04.907Z,2.63
2022-12-08T11:50:42.852Z,2.54
2022-12-08T11:53:21.361Z,2.56
2022-12-08T11:55:56.381Z,2.57
2022-12-08T11:58:27.763Z,2.58
2022-12-08T12:00:55.825Z,2.67
2022-12-08T12:03:30.393Z,2.76
2022-12-08T12:06:37.645Z,2.72
2022-12-08T12:09:13.572Z,2.80
2022-12-08T12:12:11.747Z,2.74
2022-12-08T12:15:26.860Z,2.77
2022-12-08T12:17:59.196Z,2.77
2022-12-08T12:20:31.880Z,2.83
2022-12-08T12:23:06.134Z,2.88
2022-12-08T12:25:36.061Z,2.94
2022-12-08T12:28:09.259Z,3.00
2022-12-08T12:30:54.469Z,2.90
2022-12-08T12:33:24.467Z,2.94
2022-12-08T12:35:56.346Z,2.74
2022-12-08T12:38:44.807Z,2.74
2022-12-08T12:41:16.359Z,2.64
2022-12-08T12:44:11.514Z,2.78
2022-12-08T12:46:53.334Z,2.81
2022-12-08T12:50:05.743Z,2.70
2022-12-08T12:52:51.512Z,2.61
2022-12-08T12:55:53.803Z,2.70
2022-12-08T12:58:42.554Z,2.73
2022-12-08T13:01:51.644Z,2.73
2022-12-08T13:04:20.172Z,2.66
2022-12-08T13:06:50.877Z,2.61
2022-12-08T13:09:25.316Z,2.71
2022-12-08T13:11:56.820Z,2.77
2022-12-08T13:14:31.178Z,2.76
2022-12-08T13:17:03.510Z,2.63
2022-12-08T13:19:36.343Z,2.60
2022-12-08T13:22:04.533Z,2.66
2022-12-08T13:24:35.739Z,2.55
2022-12-08T13:27:34.119Z,2.63
2022-12-08T13:30:44.393Z,2.67
2022-12-08T13:33:19.137Z,2.82
2022-12-08T13:36:02.563Z,2.94
2022-12-08T13:38:35.441Z,2.87
2022-12-08T13:41:12.859Z,2.81
2022-12-08T13:51:07.004Z,2.90
2022-12-08T13:58:33.292Z,2.97
2022-12-08T14:01:07.067Z,3.07
2022-12-08T14:04:12.396Z,3.20
2022-12-08T14:06:39.482Z,3.03
2022-12-08T14:09:12.506Z,3.13
2022-12-08T14:11:43.418Z,3.12
2022-12-08T14:14:32.760Z,3.13
2022-12-08T14:17:07.489Z,3.07
2022-12-08T14:19:36.751Z,3.14
2022-12-08T14:22:13.030Z,2.99
2022-12-08T14:24:41.835Z,2.96
2022-12-08T14:27:15.836Z,2.72
2022-12-08T14:29:45.756Z,2.65
2022-12-08T14:32:32.771Z,2.93
2022-12-08T14:35:03.298Z,2.99
2022-12-08T14:37:34.795Z,2.92
2022-12-08T14:40:07.909Z,3.02
2022-12-08T14:42:44.438Z,2.99
2022-12-08T14:45:14.922Z,3.07
2022-12-08T14:47:43.405Z,3.13
2022-12-08T14:50:43.645Z,3.07
2022-12-08T14:53:15.887Z,3.03
2022-12-08T14:55:45.681Z,3.10
2022-12-08T14:58:20.739Z,3.00
2022-12-08T15:00:52.147Z,2.93
2022-12-08T15:03:23.437Z,2.98
2022-12-08T15:05:53.561Z,2.97
2022-12-08T15:08:23.305Z,2.99
2022-12-08T15:11:18.775Z,2.99
2022-12-08T15:13:47.913Z,3.01
2022-12-08T15:16:26.500Z,3.07
2022-12-08T15:19:04.266Z,3.13
2022-12-08T15:21:58.041Z,2.99
2022-12-08T15:24:30.563Z,2.95
2022-12-08T15:26:58.887Z,2.93
2022-12-08T15:29:29.895Z,3.03
2022-12-08T15:31:59.716Z,2.99
2022-12-08T15:34:28.029Z,2.87
2022-12-08T15:36:57.862Z,2.93
2022-12-08T15:39:33.226Z,2.98
2022-12-08T15:42:02.456Z,2.96
2022-12-08T15:44:32.501Z,3.03
2022-12-08T15:47:01.070Z,2.93
2022-12-08T15:49:29.223Z,2.95
2022-12-08T15:52:08.091Z,2.98
2022-12-08T15:54:40.697Z,3.05
2022-12-08T15:57:53.037Z,3.05
2022-12-08T16:00:51.282Z,3.21
2022-12-08T16:04:08.926Z,3.05
2022-12-08T16:07:12.949Z,2.84
2022-12-08T16:09:12.406Z,2.68
2022-12-08T16:12:09.435Z,2.90
2022-12-08T16:17:26.996Z,2.58
2022-12-08T16:19:55.246Z,2.51
2022-12-08T16:25:18.857Z,2.83
2022-12-08T16:28:29.498Z,2.79
2022-12-08T16:30:39.822Z,2.91
2022-12-08T16:33:08.012Z,2.87
2022-12-08T16:35:36.144Z,3.16
2022-12-08T16:38:04.593Z,3.11
2022-12-08T16:40:32.835Z,2.91
2022-12-08T16:43:01.463Z,2.95
2022-12-08T16:45:30.706Z,2.76
2022-12-08T16:48:00.503Z,3.11
2022-12-08T16:50:31.364Z,3.09
2022-12-08T16:53:01.758Z,2.87
2022-12-08T16:55:30.257Z,2.81
2022-12-08T16:57:59.483Z,2.74
2022-12-08T17:00:30.715Z,2.79
2022-12-08T17:02:59.110Z,2.82
2022-12-08T17:05:27.763Z,2.88
2022-12-08T17:07:55.984Z,2.91
2022-12-08T17:10:25.841Z,2.81
2022-12-08T17:12:54.203Z,2.80
2022-12-08T17:15:25.529Z,2.69
2022-12-08T17:17:55.535Z,2.70
2022-12-08T17:20:25.584Z,2.68
2022-12-08T17:22:55.178Z,2.75
2022-12-08T17:25:23.157Z,2.67
2022-12-08T17:27:51.612Z,2.53
2022-12-08T17:30:19.655Z,2.73
2022-12-08T17:32:47.652Z,2.73
2022-12-08T17:35:17.051Z,2.68
2022-12-08T17:37:45.059Z,2.54
2022-12-08T17:40:13.318Z,2.42
2022-12-08T17:42:42.234Z,2.32
2022-12-08T17:45:11.133Z,2.24
2022-12-08T17:47:39.235Z,2.44
2022-12-08T17:50:08.553Z,2.39
2022-12-08T17:52:38.583Z,2.34
2022-12-08T17:55:07.934Z,2.38
2022-12-08T17:57:35.953Z,2.47
2022-12-08T18:00:05.389Z,2.53
2022-12-08T18:02:40.045Z,2.60
2022-12-08T18:05:08.669Z,2.26
2022-12-08T18:07:38.171Z,2.47
2022-12-08T18:10:07.499Z,2.59
2022-12-08T18:12:35.662Z,2.48
2022-12-08T18:15:05.012Z,2.47
2022-12-08T18:17:33.031Z,2.45
2022-12-08T18:20:00.975Z,2.20
2022-12-08T18:22:29.051Z,2.18
2022-12-08T18:24:58.661Z,2.03
2022-12-08T18:27:26.725Z,2.10
2022-12-08T18:29:54.741Z,1.89
2022-12-08T18:32:23.689Z,2.39
2022-12-08T18:34:51.863Z,2.08
2022-12-08T18:37:19.932Z,2.02
2022-12-08T18:39:48.061Z,2.12
2022-12-08T18:42:28.185Z,2.26
2022-12-08T18:45:01.577Z,2.20
2022-12-08T18:47:32.217Z,2.21
2022-12-08T18:50:00.443Z,2.14
2022-12-08T18:52:32.362Z,2.20
2022-12-08T18:55:08.247Z,2.12
2022-12-08T18:57:38.969Z,2.15
2022-12-08T19:00:09.086Z,2.08
2022-12-08T19:02:38.315Z,2.10
2022-12-08T19:05:07.636Z,2.22
2022-12-08T19:07:35.861Z,1.93
2022-12-08T19:10:05.441Z,1.87
2022-12-08T19:12:34.035Z,1.80
2022-12-08T19:15:03.923Z,2.07
2022-12-08T19:17:32.197Z,1.98
2022-12-08T19:20:00.219Z,2.14
2022-12-08T19:22:28.169Z,2.04
2022-12-08T19:24:56.155Z,2.04
2022-12-08T19:27:24.261Z,2.11
2022-12-08T19:29:52.250Z,2.02
2022-12-08T19:32:21.585Z,2.01
2022-12-08T19:34:49.560Z,2.02
2022-12-08T19:37:17.555Z,2.02
2022-12-08T19:40:02.861Z,1.91
2022-12-08T19:42:48.571Z,1.83
2022-12-08T19:45:21.349Z,1.83
2022-12-08T19:47:51.089Z,1.89
2022-12-08T19:50:37.939Z,1.87
2022-12-08T19:53:07.130Z,1.81
2022-12-08T19:55:35.526Z,1.87
2022-12-08T19:58:04.466Z,1.87
2022-12-08T20:00:34.494Z,1.86
2022-12-08T20:03:04.687Z,1.88
2022-12-08T20:05:36.752Z,1.73
2022-12-08T20:08:05.140Z,1.89
2022-12-08T20:10:38.104Z,1.68
2022-12-08T20:13:24.387Z,1.66
2022-12-08T20:15:52.747Z,1.64
2022-12-08T20:18:22.493Z,1.60
2022-12-08T20:20:51.625Z,1.67
2022-12-08T20:23:19.689Z,1.62
2022-12-08T20:25:50.256Z,1.61
2022-12-08T20:28:19.351Z,1.65
2022-12-08T20:30:48.996Z,1.68
2022-12-08T20:33:18.352Z,1.71
2022-12-08T20:35:47.961Z,1.25
2022-12-08T20:38:16.097Z,1.46
2022-12-08T20:40:46.998Z,1.47
2022-12-08T20:43:15.758Z,1.45
2022-12-08T20:45:46.240Z,1.53
2022-12-08T20:48:14.428Z,1.46
2022-12-08T20:50:42.595Z,1.45
2022-12-08T20:53:12.124Z,1.45
2022-12-08T20:55:41.618Z,1.54
2022-12-08T20:58:09.680Z,1.32
2022-12-08T21:00:38.771Z,1.35
2022-12-08T21:03:06.913Z,1.31
2022-12-08T21:05:36.198Z,1.31
2022-12-08T21:08:04.406Z,1.31
2022-12-08T21:10:36.867Z,1.35
2022-12-08T21:13:09.038Z,1.34
2022-12-08T21:15:37.549Z,1.34
2022-12-08T21:18:06.002Z,1.31
2022-12-08T21:20:34.993Z,1.26
2022-12-08T21:23:03.210Z,1.42
2022-12-08T21:25:31.229Z,1.36
2022-12-08T21:28:00.754Z,1.18
2022-12-08T21:30:28.937Z,1.14
2022-12-08T21:32:56.970Z,1.22
2022-12-08T21:35:25.198Z,1.16
2022-12-08T21:37:53.288Z,1.24
2022-12-08T21:40:21.373Z,1.14
2022-12-08T21:42:50.466Z,1.16
2022-12-08T21:45:21.627Z,0.82
2022-12-08T21:47:50.676Z,0.94
2022-12-08T21:50:19.649Z,0.77
2022-12-08T21:52:49.994Z,0.90
2022-12-08T21:55:21.512Z,0.59
2022-12-08T21:57:49.605Z,0.73
2022-12-08T22:00:20.654Z,0.51
2022-12-08T22:02:48.944Z,0.86
2022-12-08T22:05:17.152Z,0.84
2022-12-08T22:07:45.345Z,0.78
2022-12-08T22:10:13.735Z,0.85
2022-12-08T22:12:44.730Z,0.89
2022-12-08T22:15:13.387Z,0.83
2022-12-08T22:17:45.023Z,0.84
2022-12-08T22:20:17.207Z,0.73
2022-12-08T22:22:45.959Z,0.91
2022-12-08T22:25:14.168Z,0.67
2022-12-08T22:27:42.608Z,0.61
2022-12-08T22:30:12.054Z,0.84
2022-12-08T22:32:40.393Z,0.94
2022-12-08T22:35:10.827Z,0.99
2022-12-08T22:37:39.268Z,1.01
2022-12-08T22:40:09.060Z,0.45
2022-12-08T22:42:37.474Z,0.38
2022-12-08T22:45:06.245Z,0.56
2022-12-08T22:47:34.567Z,0.73
2022-12-08T22:50:02.755Z,0.35
2022-12-08T22:52:32.206Z,0.35
2022-12-08T22:55:00.260Z,0.55
2022-12-08T22:57:29.292Z,0.50
2022-12-08T22:59:57.258Z,0.20
2022-12-08T23:02:25.431Z,0.05
2022-12-08T23:04:56.809Z,-0.24
2022-12-08T23:07:25.156Z,0.08
2022-12-08T23:09:54.584Z,-0.26
2022-12-08T23:12:22.501Z,-0.25
2022-12-08T23:14:53.504Z,-0.42
2022-12-08T23:17:23.361Z,-0.36
2022-12-08T23:19:51.453Z,-0.40
2022-12-08T23:22:19.406Z,-0.48
2022-12-08T23:24:47.590Z,-0.63
2022-12-08T23:27:17.008Z,-0.53
2022-12-08T23:29:45.315Z,-0.55
2022-12-08T23:32:13.615Z,-0.74
2022-12-08T23:34:41.785Z,-0.91
2022-12-08T23:37:09.760Z,-0.88
2022-12-08T23:39:37.745Z,-0.58
2022-12-08T23:42:05.822Z,-0.75
2022-12-08T23:44:35.263Z,-0.92
2022-12-08T23:47:03.301Z,-1.01
2022-12-08T23:49:31.576Z,-1.07
2022-12-08T23:51:59.734Z,-0.99
2022-12-08T23:54:27.683Z,-0.91
2022-12-08T23:56:55.912Z,-1.01
2022-12-08T23:59:24.066Z,-1.12
